Data for 03/22/2007

Time Sea-Level Adjusted Pressure Absolute Pressure Temperature Relative Humidity Dew Point   
(mb) (inHg) (mb) (inHg) (C) (F) (%) (C) (F)
00:05 1018 30.06 847 25.01 2.8 37 43 -8.5 16.6
00:10 1018 30.06 847 25.01 2.7 36.8 43 -8.8 16.2
00:15 1018 30.06 847 25.01 2.7 36.8 43 -8.8 16.2
00:20 1018 30.06 847 25.01 2.1 35.8 45 -8.7 16.3
00:25 1018 30.06 847 25.01 2.1 35.8 40 -10.2 13.7
00:30 1018 30.06 847 25.01 2.4 36.3 39 -10.1 13.8
00:35 1018 30.06 847 25.01 2.5 36.5 39 -10.1 13.8
00:40 1018 30.06 847 25.01 2.4 36.4 42 -9.1 15.7
00:45 1018 30.06 847 25.01 2.2 36 45 -8.6 16.5
00:50 1018 30.06 847 25.01 2.2 36 46 -8.4 16.9
00:55 1018 30.06 847 25.01 2.2 35.9 47 -8 17.7
01:00 1018 30.06 847 25.01 2 35.6 47 -8.2 17.2
01:05 1017 30.03 847 25.01 2 35.6 46 -8.3 17
01:10 1017 30.03 847 25.01 2.1 35.8 43 -9.1 15.6
01:15 1017 30.03 847 25.01 2.4 36.3 43 -9 15.8
01:20 1017 30.03 847 25.01 2.5 36.6 40 -9.6 14.7
01:25 1017 30.03 846 24.98 2.4 36.3 46 -8 17.5
01:30 1017 30.03 846 24.98 1.8 35.3 48 -8.1 17.4
01:35 1017 30.03 846 24.98 1.8 35.2 48 -8 17.6
01:40 1017 30.03 846 24.98 1.9 35.3 48 -8.1 17.4
01:45 1017 30.03 846 24.98 2.1 35.9 41 -9.7 14.5
01:50 1017 30.03 846 24.98 2.5 36.6 44 -8.5 16.6
01:55 1017 30.03 846 24.98 2.4 36.3 45 -8.2 17.2
02:00 1017 30.03 846 24.98 2 35.7 48 -7.7 18.1
02:05 1017 30.03 846 24.98 1.7 35 50 -7.6 18.2
02:10 1017 30.03 846 24.98 1.5 34.6 51 -7.6 18.3
02:15 1017 30.03 846 24.98 1.1 34 53 -7.5 18.5
02:20 1017 30.03 846 24.98 1.2 34.1 52 -7.7 18.1
02:25 1017 30.03 846 24.98 1.1 34 52 -7.8 18
02:30 1017 30.03 846 24.98 1.2 34.2 51 -7.9 17.8
02:35 1017 30.03 847 25.01 1.6 34.8 49 -8.1 17.4
02:40 1017 30.03 847 25.01 1.5 34.8 49 -8.1 17.5
02:45 1017 30.03 847 25.01 1.4 34.5 52 -7.5 18.6
02:50 1017 30.03 846 24.98 1.2 34.2 52 -7.7 18.2
02:55 1017 30.03 846 24.98 1.2 34.1 52 -7.7 18.1
03:00 1017 30.03 846 24.98 1 33.8 53 -7.5 18.4
03:05 1017 30.03 846 24.98 1.1 34 50 -8.2 17.3
03:10 1017 30.03 846 24.98 1.4 34.6 50 -8 17.7
03:15 1017 30.03 846 24.98 1.4 34.5 52 -7.6 18.4
03:20 1017 30.03 846 24.98 1.3 34.3 47 -8.7 16.3
03:25 1017 30.03 846 24.98 1.6 34.9 44 -9.2 15.4
03:30 1017 30.03 846 24.98 2.1 35.8 44 -8.9 16
03:35 1017 30.03 846 24.98 2.3 36.1 42 -9.4 15
03:40 1017 30.03 846 24.98 2.6 36.7 40 -9.5 14.9
03:45 1017 30.03 846 24.98 2.8 37 39 -9.7 14.6
03:50 1017 30.03 846 24.98 2.8 37 47 -7.5 18.5
03:55 1017 30.03 846 24.98 1.7 35.1 54 -6.6 20.1
04:00 1017 30.03 846 24.98 1.1 33.9 57 -6.5 20.3
04:05 1017 30.03 846 24.98 0.6 33 58 -6.8 19.7
04:10 1017 30.03 846 24.98 0.5 33 56 -7.3 18.9
04:15 1017 30.03 846 24.98 0.6 33.1 53 -8 17.7
04:20 1017 30.03 846 24.98 0.6 33.1 52 -8.2 17.2
04:25 1016 30 845 24.95 0.6 33.1 52 -8.2 17.3
04:30 1016 30 845 24.95 0.6 33 50 -8.7 16.3
04:35 1016 30 845 24.95 0.8 33.4 47 -9.2 15.5
04:40 1016 30 845 24.95 1 33.7 46 -9.3 15.3
04:45 1016 30 846 24.98 1.4 34.6 39 -11.1 11.9
04:50 1017 30.03 846 24.98 2.2 35.9 35 -11.6 11
04:55 1017 30.03 846 24.98 2 35.5 44 -9.1 15.7
05:00 1017 30.03 846 24.98 1.2 34.2 44 -9.9 14.2
05:05 1016 30 846 24.98 1.5 34.7 37 -11.7 11
05:10 1016 30 846 24.98 1.9 35.5 43 -9.3 15.3
05:15 1017 30.03 846 24.98 0.9 33.6 49 -8.6 16.5
05:20 1017 30.03 846 24.98 0.7 33.2 49 -8.9 16
05:25 1017 30.03 846 24.98 0.6 33.1 51 -8.5 16.7
05:30 1016 30 846 24.98 0.5 33 47 -9.5 14.9
05:35 1016 30 846 24.98 0.9 33.5 43 -10.3 13.4
05:40 1017 30.03 846 24.98 1.7 35.1 42 -9.9 14.2
05:45 1017 30.03 846 24.98 1.7 35.1 41 -10.1 13.8
05:50 1017 30.03 846 24.98 1.8 35.2 40 -10.4 13.3
05:55 1017 30.03 846 24.98 1.9 35.5 40 -10.2 13.6
06:00 1017 30.03 846 24.98 2.1 35.7 44 -8.9 16
06:05 1017 30.03 846 24.98 1.4 34.5 47 -8.8 16.2
06:10 1017 30.03 846 24.98 1.1 33.9 50 -8.2 17.3
06:15 1017 30.03 846 24.98 0.8 33.4 51 -8.2 17.2
06:20 1017 30.03 846 24.98 0.8 33.4 49 -8.8 16.1
06:25 1017 30.03 846 24.98 1 33.9 51 -8.1 17.4
06:30 1017 30.03 846 24.98 0.8 33.4 49 -8.8 16.1
06:35 1017 30.03 847 25.01 1 33.8 46 -9.2 15.4
06:40 1017 30.03 847 25.01 1.1 33.9 50 -8.3 17.1
06:45 1017 30.03 847 25.01 1.1 33.9 47 -9.1 15.6
06:50 1017 30.03 847 25.01 1.5 34.6 45 -9.1 15.7
06:55 1017 30.03 847 25.01 1.3 34.4 47 -8.7 16.3
07:00 1018 30.06 847 25.01 1.2 34.1 47 -9.1 15.7
07:05 1018 30.06 847 25.01 1.2 34.1 48 -8.6 16.4
07:10 1018 30.06 847 25.01 1.2 34.2 46 -9.3 15.2
07:15 1018 30.06 847 25.01 1.4 34.6 43 -9.9 14.1
07:20 1018 30.06 847 25.01 2.1 35.7 39 -10.4 13.2
07:25 1018 30.06 847 25.01 2.5 36.4 38 -10.5 13.1
07:30 1018 30.06 847 25.01 2.6 36.6 37 -10.6 12.9
07:35 1018 30.06 847 25.01 2.4 36.4 47 -7.8 18
07:40 1018 30.06 847 25.01 1.4 34.5 50 -7.9 17.8
07:45 1018 30.06 847 25.01 1.1 34 52 -7.7 18.1
07:50 1018 30.06 847 25.01 1.3 34.3 51 -7.8 17.9
07:55 1018 30.06 847 25.01 1.8 35.2 46 -8.7 16.3
08:00 1018 30.06 847 25.01 1.8 35.3 46 -8.7 16.4
08:05 1018 30.06 847 25.01 1.9 35.4 47 -8.3 17
08:10 1018 30.06 847 25.01 2 35.6 47 -8.2 17.2
08:15 1018 30.06 847 25.01 2.1 35.8 46 -8.3 17
08:20 1018 30.06 847 25.01 2.3 36.2 45 -8.4 16.9
08:25 1018 30.06 847 25.01 2.3 36.1 46 -8.3 17.1
08:30 1018 30.06 847 25.01 2.3 36.2 47 -8 17.7
08:35 1018 30.06 847 25.01 2.5 36.5 46 -8.1 17.4
08:40 1018 30.06 847 25.01 2.5 36.5 46 -8 17.7
08:45 1018 30.06 847 25.01 2.6 36.8 47 -7.6 18.2
08:50 1018 30.06 847 25.01 2.9 37.2 45 -7.8 17.9
08:55 1018 30.06 847 25.01 2.8 37 47 -7.6 18.3
09:00 1018 30.06 847 25.01 3 37.3 47 -7.4 18.7
09:05 1018 30.06 848 25.04 3.2 37.8 45 -7.7 18.1
09:10 1018 30.06 848 25.04 3.3 38 44 -7.8 17.9
09:15 1018 30.06 848 25.04 3.4 38.1 43 -8 17.5
09:20 1019 30.09 848 25.04 4 39.2 38 -9.1 15.7
09:25 1019 30.09 848 25.04 4.5 40.2 35 -9.8 14.4
09:30 1019 30.09 848 25.04 4.9 40.8 34 -9.8 14.3
09:35 1019 30.09 848 25.04 5.1 41.1 34 -9.5 14.9
09:40 1019 30.09 848 25.04 5.2 41.3 34 -9.3 15.2
09:45 1019 30.09 848 25.04 5.3 41.5 33 -9.8 14.4
09:50 1019 30.09 848 25.04 5.3 41.5 33 -9.9 14.2
09:55 1019 30.09 848 25.04 5.4 41.6 32 -9.9 14.2
10:00 1019 30.09 848 25.04 5.5 41.9 32 -9.8 14.4
10:05 1019 30.09 848 25.04 5.8 42.4 31 -10.3 13.5
10:10 1019 30.09 848 25.04 5.9 42.6 31 -10 14.1
10:15 1019 30.09 848 25.04 5.9 42.6 31 -10 14
10:20 1019 30.09 848 25.04 5.9 42.6 30 -10.2 13.6
10:25 1019 30.09 848 25.04 5.9 42.7 31 -10 14
10:30 1019 30.09 848 25.04 5.9 42.7 31 -9.8 14.4
10:35 1019 30.09 848 25.04 6 42.7 31 -10 14
10:40 1019 30.09 848 25.04 6.4 43.5 30 -10 14.1
10:45 1019 30.09 849 25.07 6.5 43.7 30 -9.7 14.5
10:50 1019 30.09 848 25.04 6.6 43.8 31 -9.3 15.2
10:55 1019 30.09 848 25.04 6.4 43.6 31 -9.6 14.8
11:00 1019 30.09 848 25.04 6 42.8 33 -9.2 15.5
11:05 1019 30.09 848 25.04 6.3 43.4 31 -9.7 14.6
11:10 1019 30.09 848 25.04 6.7 44.1 30 -9.5 14.9
11:15 1019 30.09 848 25.04 6.8 44.3 31 -9.3 15.3
11:20 1019 30.09 848 25.04 6.8 44.2 31 -9.2 15.4
11:25 1019 30.09 848 25.04 6.7 44 31 -9.1 15.5
11:30 1019 30.09 848 25.04 6.8 44.3 31 -9.2 15.4
11:35 1019 30.09 848 25.04 7.3 45.2 30 -9.2 15.4
11:40 1019 30.09 848 25.04 7.8 46 30 -8.6 16.5
11:45 1019 30.09 848 25.04 7.7 45.9 30 -8.6 16.5
11:50 1019 30.09 848 25.04 7.7 45.8 31 -8.3 17
11:55 1019 30.09 848 25.04 7.8 46 31 -8.5 16.8
12:00 1019 30.09 848 25.04 7.1 44.8 31 -8.7 16.3
12:05 1019 30.09 848 25.04 6.4 43.5 33 -8.6 16.6
12:10 1019 30.09 848 25.04 6.9 44.5 32 -8.8 16.2
12:15 1019 30.09 848 25.04 8 46.4 30 -8.4 16.9
12:20 1019 30.09 848 25.04 8 46.5 31 -8.2 17.3
12:25 1019 30.09 848 25.04 7.5 45.5 32 -8.2 17.2
12:30 1019 30.09 848 25.04 7.5 45.4 32 -8.3 17.1
12:35 1019 30.09 848 25.04 8 46.3 30 -8.4 16.9
12:40 1018 30.06 848 25.04 8.9 48.1 29 -8.3 17
12:45 1018 30.06 848 25.04 8.9 48 30 -7.8 18
12:50 1018 30.06 847 25.01 9 48.3 30 -7.6 18.4
12:55 1018 30.06 847 25.01 9.8 49.6 28 -7.9 17.8
13:00 1018 30.06 847 25.01 10.2 50.4 29 -7.2 19
13:05 1018 30.06 847 25.01 10.2 50.4 29 -6.9 19.6
13:10 1018 30.06 847 25.01 9.2 48.6 31 -6.9 19.6
13:15 1018 30.06 847 25.01 9.7 49.5 29 -7.3 18.9
13:20 1018 30.06 847 25.01 9.6 49.3 31 -6.9 19.6
13:25 1018 30.06 847 25.01 9.9 49.8 30 -7.1 19.3
13:30 1018 30.06 847 25.01 10.1 50.1 30 -6.7 19.9
13:35 1018 30.06 847 25.01 9.1 48.4 31 -7 19.4
13:40 1018 30.06 847 25.01 9.5 49.1 31 -7 19.5
13:45 1018 30.06 847 25.01 9.7 49.4 31 -6.5 20.3
13:50 1018 30.06 847 25.01 9.5 49.2 31 -6.7 19.9
13:55 1017 30.03 847 25.01 9.9 49.9 30 -6.9 19.6
14:00 1017 30.03 847 25.01 10.4 50.7 30 -6.5 20.2
14:05 1017 30.03 846 24.98 10.6 51.1 29 -6.7 20
14:10 1017 30.03 846 24.98 10.5 50.9 30 -6.2 20.8
14:15 1017 30.03 846 24.98 10.5 50.8 30 -6.5 20.3
14:20 1017 30.03 846 24.98 10.8 51.4 29 -6.4 20.5
14:25 1017 30.03 846 24.98 11.8 53.2 27 -6.5 20.3
14:30 1017 30.03 846 24.98 12 53.7 27 -6.2 20.9
14:35 1017 30.03 846 24.98 12.5 54.4 27 -6.2 20.8
14:40 1017 30.03 846 24.98 12 53.5 28 -5.8 21.6
14:45 1017 30.03 846 24.98 11.5 52.6 28 -6.2 20.8
14:50 1016 30 846 24.98 11 51.8 30 -5.9 21.3
14:55 1016 30 846 24.98 11.3 52.4 29 -6.2 20.9
15:00 1016 30 845 24.95 12.2 54 27 -6 21.2
15:05 1016 30 845 24.95 12.2 54 28 -5.5 22
15:10 1016 30 845 24.95 11.4 52.5 29 -6 21.3
15:15 1016 30 845 24.95 12.2 54 27 -6 21.2
15:20 1016 30 845 24.95 11.9 53.3 29 -5.6 22
15:25 1016 30 845 24.95 11.5 52.7 29 -5.7 21.7
15:30 1016 30 845 24.95 11 51.8 30 -5.7 21.7
15:35 1016 30 845 24.95 11.6 52.8 29 -5.8 21.6
15:40 1016 30 845 24.95 12.7 54.9 28 -5.5 22.1
15:45 1016 30 845 24.95 13.5 56.3 27 -5.2 22.6
15:50 1016 30 845 24.95 13.5 56.3 26 -5.4 22.3
15:55 1016 30 845 24.95 13.2 55.8 27 -5.1 22.8
16:00 1016 30 845 24.95 13 55.4 28 -5.2 22.7
16:05 1016 30 845 24.95 11.4 52.6 31 -4.9 23.1
16:10 1016 30 845 24.95 11 51.7 31 -5.4 22.3
16:15 1016 30 845 24.95 11.7 53 30 -5.5 22.1
16:20 1016 30 845 24.95 11.9 53.4 30 -5.2 22.7
16:25 1016 30 845 24.95 11.9 53.4 30 -5.2 22.6
16:30 1016 30 845 24.95 12 53.7 30 -5.2 22.7
16:35 1016 30 845 24.95 12.4 54.2 29 -5.1 22.9
16:40 1016 30 845 24.95 11.8 53.2 30 -5 22.9
16:45 1015 29.97 845 24.95 11.9 53.5 29 -5.4 22.2
16:50 1015 29.97 845 24.95 12.1 53.8 30 -5.1 22.9
16:55 1015 29.97 845 24.95 12.5 54.5 29 -4.8 23.3
17:00 1015 29.97 845 24.95 12.4 54.3 30 -4.8 23.3
17:05 1015 29.97 844 24.92 12.1 53.9 30 -4.9 23.2
17:10 1015 29.97 844 24.92 12.7 54.8 29 -5 23
17:15 1015 29.97 844 24.92 12 53.7 30 -4.9 23.1
17:20 1015 29.97 844 24.92 12.5 54.5 29 -4.8 23.4
17:25 1015 29.97 844 24.92 12.6 54.6 30 -4.6 23.8
17:30 1015 29.97 844 24.92 11.9 53.4 32 -4.4 24
17:35 1015 29.97 844 24.92 11.7 53.1 31 -4.9 23.1
17:40 1015 29.97 844 24.92 11.9 53.5 30 -4.9 23.2
17:45 1015 29.97 844 24.92 11.8 53.3 32 -4.5 23.9
17:50 1015 29.97 844 24.92 11 51.8 33 -4.8 23.3
17:55 1015 29.97 844 24.92 11.1 52 32 -5 23.1
18:00 1015 29.97 844 24.92 11.5 52.7 31 -4.8 23.3
18:05 1015 29.97 844 24.92 12.1 53.8 31 -4.6 23.7
18:10 1015 29.97 844 24.92 12.4 54.3 30 -4.8 23.4
18:15 1015 29.97 844 24.92 12.4 54.3 30 -4.5 23.9
18:20 1015 29.97 844 24.92 12 53.6 31 -4.6 23.8
18:25 1015 29.97 844 24.92 11.6 52.8 32 -4.5 24
18:30 1015 29.97 844 24.92 11.1 52 33 -4.6 23.7
18:35 1015 29.97 844 24.92 11 51.7 33 -4.6 23.7
18:40 1015 29.97 844 24.92 10.9 51.6 33 -4.6 23.8
18:45 1014 29.94 844 24.92 10.7 51.3 34 -4.7 23.6
18:50 1015 29.97 844 24.92 10.6 51.1 34 -4.6 23.7
18:55 1015 29.97 844 24.92 10.6 51 34 -4.7 23.5
19:00 1015 29.97 844 24.92 10.6 51 33 -4.8 23.4
19:05 1014 29.94 844 24.92 10.5 50.9 34 -4.7 23.6
19:10 1014 29.94 844 24.92 10.5 50.8 34 -4.8 23.3
19:15 1014 29.94 844 24.92 10.6 51.1 34 -4.7 23.5
19:20 1014 29.94 844 24.92 10.7 51.2 34 -4.7 23.6
19:25 1014 29.94 843 24.89 10.6 51.2 33 -4.8 23.4
19:30 1014 29.94 843 24.89 10.6 51.1 34 -4.5 23.8
19:35 1014 29.94 843 24.89 10.4 50.7 36 -4 24.7
19:40 1014 29.94 843 24.89 10.2 50.3 35 -4.5 24
19:45 1014 29.94 843 24.89 10.2 50.4 35 -4.6 23.6
19:50 1014 29.94 843 24.89 10.1 50.2 35 -4.8 23.4
19:55 1014 29.94 843 24.89 10.3 50.5 34 -4.7 23.5
20:00 1014 29.94 843 24.89 10.4 50.6 35 -4.2 24.4
20:05 1014 29.94 843 24.89 10.1 50.3 38 -3.5 25.8
20:10 1014 29.94 844 24.92 9.8 49.6 39 -3.4 25.9
20:15 1014 29.94 843 24.89 9.7 49.4 39 -3.5 25.7
20:20 1014 29.94 843 24.89 9.7 49.5 42 -2.5 27.5
20:25 1014 29.94 843 24.89 9.4 48.8 44 -2.3 27.8
20:30 1014 29.94 843 24.89 8.7 47.7 47 -1.9 28.5
20:35 1014 29.94 844 24.92 8.6 47.5 48 -1.6 29.1
20:40 1014 29.94 844 24.92 8.4 47.1 49 -1.7 28.9
20:45 1014 29.94 844 24.92 8.5 47.3 49 -1.5 29.3
20:50 1014 29.94 844 24.92 8.4 47.2 50 -1.5 29.3
20:55 1015 29.97 844 24.92 8.2 46.8 50 -1.5 29.4
21:00 1015 29.97 844 24.92 8.3 47 48 -1.9 28.5
21:05 1015 29.97 844 24.92 8.4 47.1 47 -2.1 28.3
21:10 1015 29.97 844 24.92 8.9 48 47 -1.8 28.7
21:15 1015 29.97 844 24.92 9 48.1 48 -1.6 29.2
21:20 1015 29.97 844 24.92 9 48.3 46 -2 28.3
21:25 1015 29.97 844 24.92 9.3 48.7 45 -2.1 28.3
21:30 1015 29.97 844 24.92 9.3 48.8 43 -2.5 27.6
21:35 1015 29.97 844 24.92 9.7 49.5 41 -2.8 27
21:40 1015 29.97 844 24.92 9.9 49.7 40 -3.1 26.4
21:45 1015 29.97 844 24.92 10.1 50.2 38 -3.5 25.7
21:50 1015 29.97 844 24.92 10.3 50.6 38 -3.4 25.9
21:55 1015 29.97 844 24.92 10.3 50.6 40 -2.6 27.3
22:00 1015 29.97 844 24.92 10.3 50.5 42 -2.1 28.2
22:05 1015 29.97 844 24.92 10.4 50.8 42 -2 28.4
22:10 1015 29.97 844 24.92 10.5 50.8 42 -1.9 28.5
22:15 1015 29.97 844 24.92 10.5 50.8 42 -1.9 28.5
22:20 1015 29.97 844 24.92 10.4 50.8 40 -2.5 27.6
22:25 1015 29.97 844 24.92 10.4 50.8 40 -2.7 27.2
22:30 1015 29.97 844 24.92 10.4 50.6 40 -2.7 27.1
22:35 1015 29.97 844 24.92 10.3 50.5 39 -2.9 26.7
22:40 1015 29.97 844 24.92 10.2 50.4 39 -2.9 26.7
22:45 1015 29.97 844 24.92 10.1 50.3 39 -3.3 26.1
22:50 1015 29.97 844 24.92 10.1 50.2 39 -3.2 26.2
22:55 1015 29.97 844 24.92 10.1 50.2 39 -3.2 26.3
23:00 1015 29.97 844 24.92 10 50.1 39 -3.1 26.4
23:05 1015 29.97 844 24.92 10 50 40 -3.1 26.4
23:10 1015 29.97 844 24.92 10 50 39 -3.1 26.4
23:15 1015 29.97 844 24.92 10 49.9 39 -3.2 26.3
23:20 1015 29.97 844 24.92 9.9 49.8 40 -3.2 26.3
23:25 1015 29.97 844 24.92 9.8 49.7 39 -3.3 26.1
23:30 1015 29.97 844 24.92 9.8 49.6 40 -3.3 26.1
23:35 1015 29.97 844 24.92 9.7 49.5 40 -3.3 26.1
23:40 1015 29.97 844 24.92 9.6 49.3 40 -3.2 26.3
23:45 1015 29.97 844 24.92 9.6 49.2 41 -3 26.6
23:50 1015 29.97 844 24.92 9.5 49.2 41 -3.2 26.3
23:55 1015 29.97 844 24.92 9.5 49 41 -3.2 26.3
24:00 1015 29.97 844 24.92 9.4 48.9 42 -2.8 26.9